Latest Weather Observations for Perth Airport

IDW60801

Issued at 6:13 pm WST Friday 16 November 2018 (issued every 10 minutes, with the page automatically refreshed every 10 minutes)

About weather observations | Map of weather stations | Latest weather observations for WA | Other Formats
Station Details ID: 009021 Name: PERTH AIRPORT Lat: -31.93 Lon: 115.98 Height: 15.4 m
Data from the previous 72 hours. | See also: Recent months at Perth Airport
Date/Time
WST
Temp
°C
App
Temp
°C
Dew
Point
°C
Rel
Hum
%
Delta-T
°C
Wind Press
QNH
hPa
Press
MSL
hPa
Rain since
9am
mm
Dir  Spd
km/h
Gust
km/h
Spd
kts
Gust
kts
16/06:00pm 31.5 27.8 14.0 34 10.6 WSW 26 32 14 17 1009.5 1009.4 0.0
16/05:30pm 33.1 29.7 13.7 31 11.8 WSW 24 32 13 17 1009.2 1009.1 0.0
16/05:00pm 34.7 30.9 11.3 24 13.8 SSW 22 30 12 16 1009.3 1009.2 0.0
16/04:30pm 34.7 31.6 12.1 25 13.5 SSE 20 33 11 18 1009.6 1009.5 0.0
16/04:00pm 35.0 32.0 11.8 24 13.8 S 19 32 10 17 1009.9 1009.8 0.0
16/03:30pm 35.7 33.3 12.5 24 14.0 SSE 17 26 9 14 1010.1 1010.0 0.0
16/03:00pm 34.4 32.4 11.6 25 13.5 S 13 20 7 11 1010.4 1010.3 0.0
16/02:30pm 35.0 34.2 11.8 24 13.8 ESE 7 15 4 8 1010.8 1010.7 0.0
16/02:00pm 34.3 32.4 11.9 25 13.3 E 13 19 7 10 1011.3 1011.2 0.0
16/01:30pm 34.5 32.9 11.5 24 13.6 N 11 24 6 13 1011.6 1011.5 0.0
16/01:00pm 33.9 32.4 11.8 26 13.1 NE 11 22 6 12 1012.0 1011.9 0.0
16/12:30pm 32.9 31.3 11.6 27 12.5 N 11 26 6 14 1012.5 1012.4 0.0
16/12:00pm 31.7 30.3 12.2 30 11.5 N 11 20 6 11 1013.1 1013.1 0.0
16/11:30am 30.9 29.6 13.6 34 10.4 ESE 13 19 7 10 1013.7 1013.7 0.0
16/11:00am 30.3 27.7 13.8 36 9.9 E 20 28 11 15 1014.0 1014.0 0.0
16/10:30am 29.0 25.1 13.3 38 9.3 ESE 26 35 14 19 1014.3 1014.3 0.0
16/10:00am 27.1 23.1 13.1 42 8.2 E 26 35 14 19 1014.6 1014.6 0.0
16/09:30am 26.3 22.3 13.1 44 7.7 E 26 37 14 20 1014.9 1014.9 0.0
16/09:00am 25.2 22.4 12.7 45 7.2 E 19 30 10 16 1015.3 1015.3 0.0
16/08:30am 23.6 20.5 12.2 48 6.5 E 20 30 11 16 1015.6 1015.6 0.0
16/08:00am 22.4 19.4 12.1 52 5.8 E 19 30 10 16 1015.9 1015.9 0.0
16/07:30am 20.8 15.7 11.8 56 5.0 ENE 30 44 16 24 1016.2 1016.2 0.0
16/07:00am 19.8 15.0 11.7 59 4.5 E 28 43 15 23 1015.7 1015.7 0.0
16/06:30am 18.7 14.5 11.2 61 4.1 ENE 24 41 13 22 1015.8 1015.8 0.0
16/06:09am 18.3 13.3 11.1 63 3.9 E 28 48 15 26 1015.7 1015.7 0.0
16/06:00am 18.0 14.3 11.4 65 3.6 E 22 33 12 18 1015.5 1015.5 0.0
16/05:30am 17.6 13.3 10.9 65 3.6 E 24 39 13 21 1015.2 1015.2 0.0
16/05:00am 17.7 14.7 10.6 63 3.8 E 17 35 9 19 1015.6 1015.6 0.0
16/04:30am 18.0 13.9 10.1 60 4.2 ESE 22 32 12 17 1015.3 1015.3 0.0
16/04:00am 18.4 14.8 9.9 57 4.5 E 19 30 10 16 1015.4 1015.4 0.0
16/03:30am 18.7 15.7 9.4 54 4.9 E 15 28 8 15 1015.3 1015.3 0.0
16/03:00am 19.0 15.1 8.8 51 5.3 ESE 19 28 10 15 1015.3 1015.3 0.0
16/02:30am 19.6 16.1 8.7 49 5.7 E 17 30 9 16 1015.1 1015.1 0.0
16/02:00am 20.1 16.7 7.6 44 6.4 E 15 22 8 12 1015.1 1015.1 0.0
16/01:30am 20.7 17.5 6.7 40 7.1 E 13 26 7 14 1015.3 1015.3 0.0
16/01:00am 21.4 18.0 6.1 37 7.7 ESE 13 30 7 16 1015.5 1015.5 0.0
16/12:36am 22.0 17.2 5.6 34 8.2 ENE 20 48 11 26 1015.9 1015.9 0.0
16/12:30am 22.1 16.8 5.2 33 8.4 E 22 41 12 22 1015.9 1015.9 0.0
16/12:15am 22.6 17.8 5.4 32 8.6 ESE 20 57 11 31 1015.4 1015.4 0.0
16/12:00am 22.9 17.2 6.8 35 8.3 ESE 26 39 14 21 1015.2 1015.2 0.0
 
Date/Time
WST
Temp
°C
App
Temp
°C
Dew
Point
°C
Rel
Hum
%
Delta-T
°C
Wind Press
QNH
hPa
Press
MSL
hPa
Rain since
9am
mm
Dir  Spd
km/h
Gust
km/h
Spd
kts
Gust
kts
15/11:30pm 23.5 15.8 8.5 38 8.0 ESE 39 61 21 33 1014.6 1014.6 0.0
15/11:00pm 24.7 18.5 10.0 39 8.1 ESE 33 52 18 28 1014.5 1014.5 0.0
15/10:30pm 25.9 20.3 10.3 37 8.7 E 30 56 16 30 1014.5 1014.5 0.0
15/10:21pm 26.4 21.7 10.5 37 8.9 E 26 46 14 25 1014.6 1014.6 0.0
15/10:18pm 26.7 21.7 9.7 34 9.4 E 26 46 14 25 1014.6 1014.6 0.0
15/10:00pm 27.2 24.5 8.9 31 10.0 ESE 13 30 7 16 1014.6 1014.6 0.0
15/09:30pm 24.7 22.6 9.7 38 8.2 SSW 11 19 6 10 1014.9 1014.9 0.0
15/09:00pm 24.1 21.8 11.7 45 7.0 SSW 15 19 8 10 1014.7 1014.7 0.0
15/08:30pm 26.0 21.8 9.7 35 9.0 SSW 22 26 12 14 1014.5 1014.5 0.0
15/08:00pm 26.8 22.4 9.1 32 9.7 SSW 22 28 12 15 1014.5 1014.5 0.0
15/07:30pm 27.5 22.5 9.4 32 10.0 S 26 32 14 17 1014.5 1014.5 0.0
15/07:00pm 28.8 23.6 8.9 28 11.0 SSW 26 33 14 18 1014.2 1014.2 0.0
15/06:30pm 29.6 24.6 9.6 28 11.2 SSW 26 32 14 17 1014.0 1014.0 0.0
15/06:00pm 30.8 24.9 8.9 25 12.2 SSW 30 39 16 21 1013.6 1013.6 0.0
15/05:30pm 31.7 26.8 9.9 26 12.4 SSW 26 35 14 19 1013.6 1013.6 0.0
15/05:00pm 31.9 27.7 12.5 30 11.5 SSW 26 33 14 18 1013.6 1013.6 0.0
15/04:30pm 33.2 28.1 11.9 27 12.6 SSW 30 46 16 25 1013.6 1013.6 0.0
15/04:00pm 33.6 27.9 11.0 25 13.2 SSW 32 46 17 25 1013.7 1013.7 0.0
15/03:30pm 34.0 28.9 10.6 24 13.6 SW 28 37 15 20 1013.8 1013.8 0.0
15/03:00pm 33.7 29.1 12.2 27 12.8 SSW 28 39 15 21 1014.0 1014.0 0.0
15/02:30pm 33.0 28.2 12.8 29 12.1 SW 30 37 16 20 1014.2 1014.2 0.0
15/02:00pm 33.1 29.1 12.9 29 12.1 SW 26 33 14 18 1014.4 1014.4 0.0
15/01:30pm 34.2 29.9 10.9 24 13.6 SSW 24 33 13 18 1014.6 1014.6 0.0
15/01:00pm 33.1 29.5 10.7 25 13.0 SSW 20 30 11 16 1014.9 1014.9 0.0
15/12:30pm 32.6 29.1 10.3 25 12.8 SSW 19 30 10 16 1015.1 1015.1 0.0
15/12:00pm 32.1 28.6 10.8 27 12.3 SSW 20 35 11 19 1015.4 1015.4 0.0
15/11:30am 31.8 28.7 10.3 26 12.3 S 17 26 9 14 1015.9 1015.9 0.0
15/11:00am 30.8 27.5 9.7 27 11.9 SSW 17 26 9 14 1016.3 1016.3 0.0
15/10:30am 29.2 26.9 11.8 34 10.1 S 15 22 8 12 1016.9 1016.9 0.0
15/10:00am 28.8 26.5 11.9 35 9.8 S 15 20 8 11 1017.0 1017.0 0.0
15/09:30am 27.6 25.2 11.5 36 9.2 SSW 15 22 8 12 1017.1 1017.1 0.0
15/09:00am 27.4 24.7 11.7 37 9.0 SW 17 22 9 12 1017.1 1017.1 0.0
15/08:30am 25.5 24.6 11.3 41 8.0 SSW 7 13 4 7 1016.9 1016.9 0.0
15/08:00am 24.7 24.0 11.4 43 7.5 SSW 6 7 3 4 1016.6 1016.6 0.0
15/07:30am 23.6 23.0 11.7 47 6.7 SE 6 9 3 5 1016.7 1016.7 0.0
15/07:00am 22.1 21.5 11.7 51 5.8 WSW 6 9 3 5 1016.6 1016.6 0.0
15/06:30am 20.5 20.7 11.9 57 4.8 ENE 2 9 1 5 1016.6 1016.6 0.0
15/06:00am 18.0 16.9 12.0 68 3.3 ENE 9 11 5 6 1016.3 1016.3 0.0
15/05:30am 15.7 14.9 11.8 77 2.1 NNE 7 9 4 5 1016.1 1016.1 0.0
15/05:00am 14.5 14.5 12.3 87 1.2 NNE 4 11 2 6 1015.6 1015.6 0.0
15/04:30am 14.7 15.5 12.7 88 1.1 CALM 0 0 0 0 1015.1 1015.1 0.0
15/04:00am 14.6 15.2 13.0 90 0.9 NNE 2 6 1 3 1014.9 1014.9 0.0
15/03:30am 15.5 15.1 13.0 85 1.4 S 7 9 4 5 1014.7 1014.7 0.0
15/03:00am 16.3 16.0 13.4 83 1.6 W 7 11 4 6 1014.6 1014.6 0.0
15/02:30am 15.6 14.9 13.1 85 1.4 WNW 9 13 5 7 1014.4 1014.4 0.0
15/02:00am 15.3 15.5 13.1 87 1.2 W 4 9 2 5 1014.4 1014.4 0.0
15/01:30am 16.2 15.9 13.3 83 1.6 WSW 7 9 4 5 1014.6 1014.6 0.0
15/01:00am 16.3 15.6 13.3 82 1.7 ESE 9 15 5 8 1015.0 1015.0 0.0
15/12:30am 16.2 15.5 13.3 83 1.6 SSW 9 13 5 7 1014.9 1014.9 0.0
15/12:00am 17.9 17.2 13.3 74 2.6 SSW 9 11 5 6 1015.2 1015.2 0.0
 
Date/Time
WST
Temp
°C
App
Temp
°C
Dew
Point
°C
Rel
Hum
%
Delta-T
°C
Wind Press
QNH
hPa
Press
MSL
hPa
Rain since
9am
mm
Dir  Spd
km/h
Gust
km/h
Spd
kts
Gust
kts
14/11:30pm 18.2 16.8 13.4 73 2.7 S 13 17 7 9 1015.5 1015.5 0.0
14/11:00pm 19.6 18.1 13.1 66 3.7 SSW 13 17 7 9 1015.7 1015.7 0.0
14/10:30pm 19.1 17.5 13.9 72 3.0 S 15 17 8 9 1015.9 1015.9 0.0
14/10:00pm 20.6 19.0 14.0 66 3.8 SSW 15 19 8 10 1015.9 1015.9 0.0
14/09:30pm 21.2 19.2 13.8 62 4.3 SSW 17 24 9 13 1016.1 1016.1 0.0
14/09:00pm 21.7 18.4 14.1 62 4.4 SSW 24 32 13 17 1016.0 1016.0 0.0
14/08:30pm 22.5 19.2 14.1 59 4.9 SSW 24 30 13 16 1015.8 1015.8 0.0
14/08:00pm 23.2 20.9 14.0 56 5.4 SSW 19 28 10 15 1015.6 1015.6 0.0
14/07:30pm 23.9 21.9 13.8 53 5.9 SSW 17 20 9 11 1015.5 1015.5 0.0
14/07:00pm 24.5 21.4 13.3 49 6.5 SSW 22 28 12 15 1015.4 1015.4 0.0
14/06:30pm 25.3 23.1 14.4 50 6.5 SW 19 26 10 14 1015.3 1015.3 0.0
14/06:00pm 26.1 23.8 14.1 47 7.1 SW 19 24 10 13 1015.3 1015.3 0.0
14/05:30pm 27.0 23.5 13.4 43 8.0 SW 24 30 13 16 1015.2 1015.2 0.0
14/05:00pm 27.6 23.6 12.9 40 8.6 SW 26 32 14 17 1015.2 1015.2 0.0
14/04:30pm 29.3 26.2 13.3 37 9.5 WSW 22 28 12 15 1015.1 1015.1 0.0
14/04:00pm 29.7 27.2 14.1 38 9.4 WSW 20 28 11 15 1015.1 1015.1 0.0
14/03:30pm 30.5 27.7 13.2 34 10.3 W 20 28 11 15 1015.2 1015.2 0.0
14/03:00pm 30.4 28.0 13.8 36 10.0 W 19 26 10 14 1015.4 1015.4 0.0
14/02:30pm 30.5 28.8 9.8 27 11.7 SSW 9 15 5 8 1015.7 1015.7 0.0
14/02:00pm 30.0 27.9 11.0 31 10.9 SSE 13 20 7 11 1016.0 1016.0 0.0
14/01:30pm 30.1 28.8 11.2 31 10.9 ESE 9 17 5 9 1016.4 1016.4 0.0
14/01:00pm 28.9 26.8 11.1 33 10.2 E 13 19 7 10 1016.9 1016.9 0.0
14/12:30pm 28.1 26.5 11.6 36 9.5 ESE 11 19 6 10 1017.2 1017.2 0.0
14/12:00pm 28.3 26.6 12.3 37 9.3 SSE 13 20 7 11 1017.5 1017.5 0.0
14/11:30am 26.5 24.6 11.8 40 8.4 SSE 13 26 7 14 1018.0 1018.0 0.0
14/11:00am 25.5 23.5 11.6 41 7.9 ESE 13 33 7 18 1018.4 1018.4 0.0
14/10:30am 24.9 22.1 11.4 42 7.6 SE 17 26 9 14 1018.5 1018.5 0.0
14/10:00am 24.0 20.9 11.6 45 7.0 ESE 19 28 10 15 1018.6 1018.6 0.0
14/09:30am 23.0 18.9 11.3 47 6.5 ESE 24 32 13 17 1018.8 1018.8 0.0
14/09:00am 22.1 17.2 11.3 50 6.0 E 28 41 15 22 1018.8 1018.8 0.0
14/08:30am 20.7 16.5 11.0 53 5.3 E 24 37 13 20 1019.0 1019.0 0.0
14/08:00am 19.5 16.2 10.8 57 4.7 E 19 35 10 19 1019.2 1019.2 0.0
14/07:30am 18.4 15.3 10.4 59 4.3 ESE 17 26 9 14 1018.9 1018.9 0.0
14/07:00am 17.2 13.7 10.2 63 3.7 E 19 32 10 17 1018.8 1018.8 0.0
14/06:30am 16.5 14.1 10.0 65 3.4 E 13 17 7 9 1018.7 1018.7 0.0
14/06:00am 15.6 12.8 10.0 69 2.9 E 15 22 8 12 1018.5 1018.5 0.0
14/05:30am 15.5 11.4 10.1 70 2.8 ESE 22 35 12 19 1018.1 1018.1 0.0
14/05:00am 15.8 13.5 10.5 71 2.8 ESE 13 22 7 12 1017.7 1017.7 0.0
14/04:30am 16.2 14.0 10.7 70 2.9 ESE 13 22 7 12 1017.3 1017.3 0.0
14/04:00am 16.8 14.2 10.6 67 3.3 ESE 15 26 8 14 1017.2 1017.2 0.0
14/03:30am 17.3 15.1 10.8 65 3.5 ESE 13 20 7 11 1017.3 1017.3 0.0
14/03:00am 14.6 12.3 11.6 82 1.6 ESE 15 20 8 11 1017.2 1017.2 0.0
14/02:30am 14.7 13.5 11.7 82 1.6 SW 9 13 5 7 1017.1 1017.1 0.0
14/02:00am 14.9 13.4 11.9 82 1.6 SW 11 13 6 7 1017.1 1017.1 0.0
14/01:30am 15.2 13.1 12.3 83 1.6 SSW 15 19 8 10 1017.1 1017.1 0.0
14/01:00am 15.8 12.6 13.1 84 1.5 SSW 22 26 12 14 1017.3 1017.3 0.0
14/12:30am 16.4 13.4 13.6 83 1.6 SSW 22 30 12 16 1017.3 1017.3 0.0
14/12:00am 16.6 14.5 13.6 82 1.7 SSW 17 20 9 11 1017.5 1017.5 0.0
 
Date/Time
WST
Temp
°C
App
Temp
°C
Dew
Point
°C
Rel
Hum
%
Delta-T
°C
Wind Press
QNH
hPa
Press
MSL
hPa
Rain since
9am
mm
Dir  Spd
km/h
Gust
km/h
Spd
kts
Gust
kts
13/11:30pm 16.7 15.0 13.7 82 1.7 S 15 19 8 10 1017.7 1017.7 0.0
13/11:00pm 17.3 15.7 13.8 80 2.0 SSW 15 19 8 10 1017.9 1017.9 0.0
13/10:30pm 17.5 15.9 14.0 80 2.0 SSW 15 19 8 10 1018.0 1018.0 0.0
13/10:00pm 17.7 15.8 14.2 80 2.0 SSW 17 20 9 11 1018.2 1018.2 0.0
13/09:30pm 18.1 15.9 14.3 78 2.2 SSW 19 22 10 12 1018.4 1018.4 0.0
13/09:00pm 18.6 16.3 14.1 75 2.6 SSW 19 26 10 14 1018.3 1018.3 0.0
13/08:30pm 18.7 16.3 14.4 76 2.5 SSW 20 26 11 14 1018.2 1018.2 0.0
13/08:00pm 19.1 16.3 14.4 74 2.7 SW 22 30 12 16 1017.9 1017.9 0.0
13/07:30pm 19.9 17.1 14.4 70 3.2 SW 22 28 12 15 1017.5 1017.5 0.0
13/07:00pm 20.4 17.0 14.8 70 3.3 SW 26 32 14 17 1017.2 1017.2 0.0
13/06:30pm 21.5 18.6 13.9 62 4.4 SW 22 30 12 16 1016.8 1016.8 0.0

Other Formats:

Comma delimited format used in spreadsheet applications
http://www.bom.gov.au/fwo/IDW60801/IDW60801.94610.axf

JavaScript Object Notation format (JSON) in row-major order
http://www.bom.gov.au/fwo/IDW60801/IDW60801.94610.json